createdAt,value
2019-04-07T00:02:09.756Z,3.63
2019-04-07T00:04:39.875Z,3.83
2019-04-07T00:07:10.308Z,3.70
2019-04-07T00:09:40.337Z,3.67
2019-04-07T00:12:10.420Z,3.80
2019-04-07T00:14:42.489Z,3.63
2019-04-07T00:17:12.488Z,4.07
2019-04-07T00:19:42.323Z,3.57
2019-04-07T00:22:12.736Z,4.67
2019-04-07T00:24:43.183Z,3.73
2019-04-07T00:27:13.165Z,3.90
2019-04-07T00:29:43.085Z,3.27
2019-04-07T00:32:12.997Z,4.00
2019-04-07T00:34:42.987Z,3.60
2019-04-07T00:37:13.031Z,4.53
2019-04-07T00:39:43.456Z,3.13
2019-04-07T00:42:13.567Z,3.80
2019-04-07T00:44:43.475Z,3.70
2019-04-07T00:47:14.428Z,3.57
2019-04-07T00:49:44.392Z,4.50
2019-04-07T00:52:16.253Z,3.83
2019-04-07T00:54:46.141Z,3.40
2019-04-07T00:57:16.401Z,3.70
2019-04-07T00:59:46.314Z,3.37
2019-04-07T01:02:16.930Z,3.20
2019-04-07T01:04:47.269Z,3.43
2019-04-07T01:07:17.250Z,3.60
2019-04-07T01:09:47.316Z,3.30
2019-04-07T01:12:18.254Z,3.77
2019-04-07T01:14:48.971Z,3.97
2019-04-07T01:17:19.133Z,4.37
2019-04-07T01:19:49.680Z,5.33
2019-04-07T01:22:19.636Z,4.23
2019-04-07T01:24:49.597Z,8.67
2019-04-07T01:27:19.574Z,6.97
2019-04-07T01:29:49.466Z,9.60
2019-04-07T01:32:19.294Z,4.33
2019-04-07T01:34:49.406Z,6.10
2019-04-07T01:37:19.745Z,6.77
2019-04-07T01:39:50.098Z,7.63
2019-04-07T01:42:26.155Z,5.60
2019-04-07T01:45:31.139Z,8.67
2019-04-07T01:48:08.806Z,7.00
2019-04-07T01:50:46.985Z,5.73
2019-04-07T01:53:35.805Z,6.30
2019-04-07T01:56:23.441Z,7.13
2019-04-07T01:59:07.618Z,5.37
2019-04-07T02:01:55.753Z,7.50
2019-04-07T02:04:40.852Z,7.33
2019-04-07T02:07:27.207Z,9.37
2019-04-07T02:10:30.672Z,5.00
2019-04-07T02:13:39.334Z,3.90
2019-04-07T02:16:18.242Z,5.20
2019-04-07T02:19:00.984Z,4.10
2019-04-07T02:21:46.550Z,4.40
2019-04-07T02:24:20.988Z,4.27
2019-04-07T02:27:28.414Z,4.40
2019-04-07T02:30:21.860Z,4.07
2019-04-07T02:33:02.156Z,4.23
2019-04-07T02:36:20.725Z,6.30
2019-04-07T02:38:56.909Z,3.73
2019-04-07T02:41:36.451Z,4.23
2019-04-07T02:44:25.213Z,5.73
2019-04-07T02:47:16.012Z,4.07
2019-04-07T02:50:10.749Z,5.93
2019-04-07T02:53:05.791Z,5.27
2019-04-07T02:55:42.420Z,4.60
2019-04-07T02:58:50.089Z,4.03
2019-04-07T03:01:37.518Z,3.80
2019-04-07T03:04:17.867Z,4.83
2019-04-07T03:06:56.824Z,5.80
2019-04-07T03:09:44.759Z,4.97
2019-04-07T03:12:30.700Z,5.83
2019-04-07T03:15:16.083Z,4.13
2019-04-07T03:18:12.593Z,4.23
2019-04-07T03:21:02.415Z,4.20
2019-04-07T03:23:49.698Z,4.03
2019-04-07T03:26:37.756Z,3.90
2019-04-07T03:29:18.204Z,4.07
2019-04-07T03:32:10.264Z,3.80
2019-04-07T03:34:46.807Z,3.97
2019-04-07T03:37:39.774Z,3.87
2019-04-07T03:40:20.908Z,4.13
2019-04-07T03:43:13.439Z,3.90
2019-04-07T03:45:50.015Z,4.40
2019-04-07T03:48:28.367Z,4.63
2019-04-07T03:51:04.909Z,5.30
2019-04-07T03:53:42.794Z,5.40
2019-04-07T03:56:20.259Z,4.67
2019-04-07T03:58:58.004Z,3.80
2019-04-07T04:01:45.951Z,4.10
2019-04-07T04:04:32.502Z,4.90
2019-04-07T04:07:20.135Z,4.23
2019-04-07T04:10:03.226Z,4.57
2019-04-07T04:12:39.832Z,3.60
2019-04-07T04:15:18.261Z,4.20
2019-04-07T04:17:48.312Z,3.77
2019-04-07T04:20:18.340Z,3.87
2019-04-07T04:22:48.557Z,3.90
2019-04-07T04:25:21.434Z,3.93
2019-04-07T04:27:51.465Z,3.37
2019-04-07T04:30:21.449Z,4.17
2019-04-07T04:32:52.146Z,4.53
2019-04-07T04:35:22.443Z,3.90
2019-04-07T04:37:53.969Z,3.87
2019-04-07T04:40:24.277Z,3.90
2019-04-07T04:42:55.045Z,4.00
2019-04-07T04:45:25.073Z,5.10
2019-04-07T04:47:56.082Z,4.70
2019-04-07T04:50:26.163Z,3.77
2019-04-07T04:52:56.429Z,4.57
2019-04-07T04:55:26.374Z,4.70
2019-04-07T04:57:56.612Z,4.30
2019-04-07T05:00:28.492Z,4.83
2019-04-07T05:02:59.327Z,4.43
2019-04-07T05:05:29.265Z,4.90
2019-04-07T05:08:03.637Z,4.33
2019-04-07T05:10:31.027Z,4.73
2019-04-07T05:13:01.583Z,4.43
2019-04-07T05:15:32.546Z,6.80
2019-04-07T05:18:02.697Z,4.87
2019-04-07T05:20:33.161Z,4.93
2019-04-07T05:23:03.080Z,5.40
2019-04-07T05:25:33.665Z,4.80
2019-04-07T05:28:03.815Z,6.23
2019-04-07T05:30:33.726Z,5.33
2019-04-07T05:33:04.559Z,4.90
2019-04-07T05:35:35.084Z,4.93
2019-04-07T05:38:06.742Z,5.13
2019-04-07T05:40:36.753Z,4.97
2019-04-07T05:43:07.166Z,4.70
2019-04-07T05:45:37.679Z,6.23
2019-04-07T05:48:08.267Z,5.50
2019-04-07T05:50:38.631Z,5.83
2019-04-07T05:53:12.635Z,5.43
2019-04-07T05:55:40.271Z,6.50
2019-04-07T05:58:10.605Z,5.53
2019-04-07T06:00:41.591Z,5.83
2019-04-07T06:03:12.170Z,6.17
2019-04-07T06:05:41.994Z,6.30
2019-04-07T06:08:22.607Z,6.23
2019-04-07T06:10:43.707Z,6.27
2019-04-07T06:13:14.721Z,5.97
2019-04-07T06:15:45.759Z,7.87
2019-04-07T06:18:15.791Z,5.70
2019-04-07T06:20:46.655Z,6.17
2019-04-07T06:23:17.008Z,5.17
2019-04-07T06:25:47.591Z,6.70
2019-04-07T06:28:19.108Z,6.13
2019-04-07T06:30:49.524Z,5.77
2019-04-07T06:33:19.945Z,5.67
2019-04-07T06:35:53.919Z,5.90
2019-04-07T06:38:31.110Z,5.90
2019-04-07T06:40:57.119Z,6.03
2019-04-07T06:43:25.851Z,5.97
2019-04-07T06:46:03.849Z,6.00
2019-04-07T06:48:38.019Z,5.50
2019-04-07T06:51:13.990Z,5.80
2019-04-07T06:53:55.712Z,6.37
2019-04-07T06:56:33.418Z,5.93
2019-04-07T06:59:27.317Z,6.20
2019-04-07T07:02:22.559Z,5.50
2019-04-07T07:05:06.840Z,6.10
2019-04-07T07:07:48.323Z,6.67
2019-04-07T07:10:37.013Z,5.70
2019-04-07T07:13:30.739Z,6.20
2019-04-07T07:16:15.737Z,6.47
2019-04-07T07:19:06.396Z,5.80
2019-04-07T07:21:54.048Z,6.60
2019-04-07T07:24:25.680Z,6.50
2019-04-07T07:26:57.693Z,7.20
2019-04-07T07:29:27.093Z,6.33
2019-04-07T07:32:01.913Z,8.07
2019-04-07T07:34:28.534Z,7.30
2019-04-07T07:36:58.983Z,6.80
2019-04-07T07:39:30.544Z,10.30
2019-04-07T07:42:00.565Z,6.27
2019-04-07T07:44:31.241Z,6.93
2019-04-07T07:47:02.665Z,7.50
2019-04-07T07:49:36.886Z,7.07
2019-04-07T07:52:06.046Z,6.30
2019-04-07T07:54:37.232Z,6.67
2019-04-07T07:57:07.980Z,6.80
2019-04-07T07:59:39.338Z,6.90
2019-04-07T08:02:09.830Z,6.63
2019-04-07T08:04:39.950Z,6.43
2019-04-07T08:07:13.452Z,6.60
2019-04-07T08:09:42.126Z,5.90
2019-04-07T08:12:12.694Z,7.07
2019-04-07T08:14:42.715Z,7.00
2019-04-07T08:17:12.531Z,8.30
2019-04-07T08:19:44.330Z,11.30
2019-04-07T08:22:25.325Z,17.03
2019-04-07T08:24:47.642Z,15.13
2019-04-07T08:27:17.148Z,12.90
2019-04-07T08:29:47.429Z,14.13
2019-04-07T08:32:17.645Z,13.60
2019-04-07T08:34:47.510Z,15.73
2019-04-07T08:37:17.937Z,15.10
2019-04-07T08:39:48.595Z,14.90
2019-04-07T08:42:19.721Z,14.40
2019-04-07T08:44:49.940Z,14.80
2019-04-07T08:47:22.299Z,16.87
2019-04-07T08:49:55.423Z,16.07
2019-04-07T08:52:23.469Z,16.97
2019-04-07T08:54:53.549Z,19.73
2019-04-07T08:57:27.249Z,18.17
2019-04-07T08:59:55.114Z,18.30
2019-04-07T09:02:26.870Z,20.43
2019-04-07T09:04:56.949Z,18.37
2019-04-07T09:07:27.646Z,19.17
2019-04-07T09:09:57.861Z,19.57
2019-04-07T09:12:30.921Z,19.40
2019-04-07T09:15:02.838Z,18.30
2019-04-07T09:17:50.344Z,16.57
2019-04-07T09:20:48.398Z,22.53
2019-04-07T09:23:26.357Z,16.50
2019-04-07T09:26:28.679Z,14.67
2019-04-07T09:29:08.375Z,15.97
2019-04-07T09:32:00.504Z,23.30
2019-04-07T09:34:52.259Z,19.50
2019-04-07T09:37:44.858Z,21.23
2019-04-07T09:40:21.473Z,23.93
2019-04-07T09:43:18.041Z,24.37
2019-04-07T09:46:03.557Z,22.87
2019-04-07T09:48:58.778Z,23.83
2019-04-07T09:51:41.526Z,25.57
2019-04-07T09:54:20.524Z,25.80
2019-04-07T09:57:19.121Z,24.83
2019-04-07T10:00:14.471Z,30.17
2019-04-07T10:03:12.959Z,26.37
2019-04-07T10:06:00.813Z,26.67
2019-04-07T10:08:39.311Z,27.63
2019-04-07T10:11:37.447Z,29.63
2019-04-07T10:14:18.571Z,26.13
2019-04-07T10:16:54.631Z,24.43
2019-04-07T10:19:58.834Z,26.43
2019-04-07T10:22:44.112Z,30.30
2019-04-07T10:25:36.596Z,30.47
2019-04-07T10:28:27.685Z,30.50
2019-04-07T10:31:23.553Z,28.17
2019-04-07T10:34:00.050Z,29.33
2019-04-07T10:36:42.324Z,29.93
2019-04-07T10:39:49.749Z,29.53
2019-04-07T10:42:38.825Z,30.00
2019-04-07T10:45:26.307Z,29.07
2019-04-07T10:48:15.452Z,30.03
2019-04-07T10:51:03.302Z,26.50
2019-04-07T10:53:48.286Z,27.17
2019-04-07T10:56:31.991Z,26.03
2019-04-07T10:59:19.961Z,27.93
2019-04-07T11:02:08.352Z,27.43
2019-04-07T11:04:56.398Z,28.20
2019-04-07T11:07:42.377Z,27.13
2019-04-07T11:10:34.616Z,26.73
2019-04-07T11:13:18.633Z,28.83
2019-04-07T11:16:06.594Z,28.13
2019-04-07T11:18:56.550Z,31.10
2019-04-07T11:21:45.478Z,28.47
2019-04-07T11:24:38.117Z,27.80
2019-04-07T11:27:15.045Z,28.00
2019-04-07T11:29:54.979Z,28.27
2019-04-07T11:32:32.781Z,26.93
2019-04-07T11:35:13.753Z,28.80
2019-04-07T11:37:49.617Z,26.80
2019-04-07T11:40:42.507Z,29.03
2019-04-07T11:43:28.049Z,28.87
2019-04-07T11:46:14.047Z,30.10
2019-04-07T11:49:02.783Z,30.43
2019-04-07T11:51:50.521Z,29.30
2019-04-07T11:54:42.656Z,29.67
2019-04-07T11:57:34.190Z,27.93
2019-04-07T12:00:33.414Z,28.87
2019-04-07T12:03:26.032Z,28.10
2019-04-07T12:06:14.346Z,31.03
2019-04-07T12:08:56.477Z,29.63
2019-04-07T12:11:48.397Z,31.83
2019-04-07T12:14:27.546Z,30.43
2019-04-07T12:17:15.365Z,29.73
2019-04-07T12:19:55.963Z,29.87
2019-04-07T12:22:41.720Z,30.43
2019-04-07T12:25:33.559Z,30.60
2019-04-07T12:28:28.892Z,30.90
2019-04-07T12:31:07.549Z,30.13
2019-04-07T12:33:46.398Z,29.70
2019-04-07T12:36:35.471Z,27.50
2019-04-07T12:39:34.148Z,30.40
2019-04-07T12:42:11.344Z,28.53
2019-04-07T12:44:52.851Z,29.57
2019-04-07T12:47:41.871Z,30.27
2019-04-07T12:50:35.641Z,29.60
2019-04-07T12:53:34.439Z,28.73
2019-04-07T12:56:13.477Z,29.60
2019-04-07T12:59:05.356Z,29.10
2019-04-07T13:01:48.468Z,29.20
2019-04-07T13:04:44.610Z,30.23
2019-04-07T13:07:32.575Z,29.07
2019-04-07T13:10:10.807Z,28.37
2019-04-07T13:13:07.991Z,29.00
2019-04-07T13:16:01.455Z,27.70
2019-04-07T13:18:50.016Z,26.57
2019-04-07T13:21:25.106Z,25.63
2019-04-07T13:24:07.043Z,25.63
2019-04-07T13:26:45.612Z,25.17
2019-04-07T13:29:34.526Z,25.13
2019-04-07T13:32:14.935Z,24.30
2019-04-07T13:34:56.325Z,23.77
2019-04-07T13:37:35.902Z,21.97
2019-04-07T13:40:24.201Z,23.90
2019-04-07T13:43:13.417Z,20.13
2019-04-07T13:46:17.087Z,19.37
2019-04-07T13:49:02.768Z,18.37
2019-04-07T13:51:44.819Z,19.47
2019-04-07T13:54:21.156Z,19.37
2019-04-07T13:57:07.322Z,18.20
2019-04-07T14:00:02.119Z,19.47
2019-04-07T14:02:55.999Z,20.13
2019-04-07T14:05:43.640Z,18.30
2019-04-07T14:08:31.010Z,17.20
2019-04-07T14:11:27.354Z,15.83
2019-04-07T14:14:16.772Z,16.97
2019-04-07T14:17:06.257Z,15.43
2019-04-07T14:20:01.358Z,15.07
2019-04-07T14:22:50.529Z,14.90
2019-04-07T14:25:41.904Z,15.03
2019-04-07T14:28:23.457Z,14.50
2019-04-07T14:31:11.650Z,14.97
2019-04-07T14:33:59.242Z,13.20
2019-04-07T14:36:55.201Z,13.83
2019-04-07T14:39:47.673Z,12.27
2019-04-07T14:42:39.608Z,12.97
2019-04-07T14:45:32.066Z,11.23
2019-04-07T14:48:14.713Z,11.83
2019-04-07T14:50:58.134Z,10.07
2019-04-07T14:53:40.850Z,9.73
2019-04-07T14:56:20.522Z,12.07
2019-04-07T14:59:15.359Z,12.17
2019-04-07T15:01:53.703Z,10.70
2019-04-07T15:04:29.127Z,10.20
2019-04-07T15:07:11.617Z,10.23
2019-04-07T15:09:49.059Z,9.43
2019-04-07T15:12:28.498Z,9.53
2019-04-07T15:14:58.943Z,9.93
2019-04-07T15:17:29.406Z,10.23
2019-04-07T15:19:59.389Z,9.93
2019-04-07T15:22:30.836Z,10.83
2019-04-07T15:25:01.448Z,9.50
2019-04-07T15:27:31.623Z,10.00
2019-04-07T15:30:02.367Z,11.20
2019-04-07T15:32:35.641Z,10.07
2019-04-07T15:35:06.282Z,12.13
2019-04-07T15:37:39.514Z,11.57
2019-04-07T15:40:09.036Z,12.03
2019-04-07T15:42:42.900Z,11.43
2019-04-07T15:45:12.254Z,12.67
2019-04-07T15:47:42.565Z,11.43
2019-04-07T15:50:12.636Z,11.97
2019-04-07T15:52:45.939Z,11.83
2019-04-07T15:55:14.764Z,12.60
2019-04-07T15:57:44.744Z,13.43
2019-04-07T16:00:16.429Z,12.43
2019-04-07T16:02:49.008Z,12.73
2019-04-07T16:05:18.220Z,13.27
2019-04-07T16:07:48.160Z,13.20
2019-04-07T16:10:21.292Z,11.50
2019-04-07T16:12:52.469Z,11.97
2019-04-07T16:15:23.097Z,12.67
2019-04-07T16:17:53.038Z,13.33
2019-04-07T16:20:26.266Z,12.23
2019-04-07T16:22:55.508Z,14.73
2019-04-07T16:25:27.869Z,11.70
2019-04-07T16:27:57.419Z,12.27
2019-04-07T16:30:27.343Z,12.53
2019-04-07T16:33:01.898Z,12.73
2019-04-07T16:35:29.839Z,10.93
2019-04-07T16:38:01.534Z,11.93
2019-04-07T16:40:31.769Z,11.73
2019-04-07T16:43:11.721Z,11.93
2019-04-07T16:45:33.937Z,12.10
2019-04-07T16:48:05.441Z,11.70
2019-04-07T16:50:35.417Z,11.90
2019-04-07T16:53:07.650Z,11.50
2019-04-07T16:55:40.392Z,11.90
2019-04-07T16:58:11.822Z,12.23
2019-04-07T17:00:41.942Z,11.57
2019-04-07T17:03:11.981Z,11.70
2019-04-07T17:05:42.957Z,12.27
2019-04-07T17:08:17.655Z,11.33
2019-04-07T17:10:45.408Z,11.53
2019-04-07T17:13:20.503Z,11.03
2019-04-07T17:15:50.779Z,11.20
2019-04-07T17:18:39.051Z,10.43
2019-04-07T17:21:14.018Z,11.40
2019-04-07T17:23:43.478Z,11.73
2019-04-07T17:26:13.826Z,11.80
2019-04-07T17:28:46.196Z,10.80
2019-04-07T17:31:15.917Z,12.03
2019-04-07T17:33:46.936Z,11.30
2019-04-07T17:36:20.130Z,11.70
2019-04-07T17:38:58.602Z,10.53
2019-04-07T17:41:29.085Z,11.37
2019-04-07T17:44:23.410Z,10.93
2019-04-07T17:47:18.639Z,10.90
2019-04-07T17:50:10.686Z,10.37
2019-04-07T17:53:14.932Z,10.07
2019-04-07T17:56:01.305Z,10.80
2019-04-07T17:58:59.847Z,10.47
2019-04-07T18:02:00.399Z,11.20
2019-04-07T18:04:53.809Z,11.80
2019-04-07T18:07:52.067Z,14.37
2019-04-07T18:10:39.693Z,11.33
2019-04-07T18:13:39.521Z,11.30
2019-04-07T18:16:12.241Z,10.53
2019-04-07T18:18:58.325Z,10.63
2019-04-07T18:21:48.731Z,11.30
2019-04-07T18:24:31.717Z,11.40
2019-04-07T18:27:23.940Z,10.90
2019-04-07T18:30:14.504Z,12.37
2019-04-07T18:32:58.630Z,11.07
2019-04-07T18:35:52.215Z,11.80
2019-04-07T18:38:53.658Z,10.77
2019-04-07T18:41:47.923Z,11.70
2019-04-07T18:44:25.396Z,12.20
2019-04-07T18:47:20.889Z,12.03
2019-04-07T18:50:07.643Z,13.35
2019-04-07T18:52:47.541Z,11.50
2019-04-07T18:55:45.103Z,11.17
2019-04-07T18:58:50.021Z,11.07
2019-04-07T19:01:52.458Z,11.20
2019-04-07T19:04:34.733Z,12.07
2019-04-07T19:07:27.186Z,10.97
2019-04-07T19:10:10.590Z,11.90
2019-04-07T19:12:43.787Z,10.60
2019-04-07T19:15:37.123Z,10.93
2019-04-07T19:18:14.341Z,11.10
2019-04-07T19:21:09.769Z,11.60
2019-04-07T19:24:10.732Z,12.03
2019-04-07T19:27:12.017Z,11.53
2019-04-07T19:29:43.138Z,10.40
2019-04-07T19:32:40.238Z,11.67
2019-04-07T19:35:23.890Z,13.03
2019-04-07T19:38:05.360Z,11.90
2019-04-07T19:41:00.209Z,12.00
2019-04-07T19:43:48.036Z,13.30
2019-04-07T19:46:46.105Z,13.23
2019-04-07T19:49:53.563Z,16.07
2019-04-07T19:52:45.278Z,17.13
2019-04-07T19:55:40.981Z,15.23
2019-04-07T19:58:37.252Z,15.83
2019-04-07T20:01:29.527Z,15.13
2019-04-07T20:04:12.948Z,16.40
2019-04-07T20:06:56.114Z,16.87
2019-04-07T20:09:45.844Z,15.37
2019-04-07T20:12:27.403Z,14.73
2019-04-07T20:15:17.920Z,14.33
2019-04-07T20:18:10.477Z,15.83
2019-04-07T20:20:46.629Z,14.97
2019-04-07T20:23:36.011Z,16.13
2019-04-07T20:26:24.142Z,14.57
2019-04-07T20:29:11.755Z,13.77
2019-04-07T20:31:53.475Z,14.10
2019-04-07T20:34:52.637Z,14.67
2019-04-07T20:37:41.165Z,13.50
2019-04-07T20:40:29.543Z,14.90
2019-04-07T20:43:28.450Z,15.23
2019-04-07T20:46:36.004Z,15.23
2019-04-07T20:49:34.296Z,15.07
2019-04-07T20:52:41.269Z,13.97
2019-04-07T20:55:30.952Z,13.30
2019-04-07T20:58:43.809Z,11.83
2019-04-07T21:01:25.532Z,14.80
2019-04-07T21:04:04.615Z,14.10
2019-04-07T21:06:53.972Z,14.13
2019-04-07T21:09:34.058Z,13.47
2019-04-07T21:12:33.973Z,13.27
2019-04-07T21:15:27.491Z,13.30
2019-04-07T21:18:12.677Z,13.97
2019-04-07T21:20:59.784Z,14.00
2019-04-07T21:23:41.785Z,14.53
2019-04-07T21:26:19.712Z,14.20
2019-04-07T21:29:10.987Z,14.00
2019-04-07T21:32:01.935Z,14.03
2019-04-07T21:34:49.361Z,13.77
2019-04-07T21:37:40.713Z,13.67
2019-04-07T21:40:37.889Z,13.60
2019-04-07T21:43:27.998Z,13.23
2019-04-07T21:46:22.264Z,14.73
2019-04-07T21:49:09.795Z,12.47
2019-04-07T21:51:48.585Z,13.90
2019-04-07T21:54:41.218Z,13.00
2019-04-07T21:57:36.407Z,12.07
2019-04-07T22:00:35.497Z,12.53
2019-04-07T22:03:36.184Z,12.87
2019-04-07T22:06:29.783Z,9.53
2019-04-07T22:09:09.885Z,11.93
2019-04-07T22:11:43.086Z,10.20
2019-04-07T22:14:12.420Z,11.63
2019-04-07T22:16:42.847Z,11.50
2019-04-07T22:19:15.087Z,11.63
2019-04-07T22:21:44.547Z,11.87
2019-04-07T22:24:15.171Z,10.87
2019-04-07T22:26:49.209Z,12.27
2019-04-07T22:29:16.990Z,10.60
2019-04-07T22:31:51.421Z,11.13
2019-04-07T22:34:21.583Z,11.40
2019-04-07T22:36:51.762Z,11.60
2019-04-07T22:39:22.620Z,9.73
2019-04-07T22:41:52.667Z,10.70
2019-04-07T22:44:23.263Z,11.83
2019-04-07T22:46:54.385Z,11.60
2019-04-07T22:49:28.557Z,11.53
2019-04-07T22:51:56.677Z,11.77
2019-04-07T22:54:30.800Z,12.00
2019-04-07T22:57:00.665Z,12.13
2019-04-07T22:59:30.651Z,12.77
2019-04-07T23:02:00.610Z,12.50
2019-04-07T23:04:30.757Z,13.40
2019-04-07T23:07:00.861Z,11.50
2019-04-07T23:09:31.426Z,11.73
2019-04-07T23:12:02.213Z,12.77
2019-04-07T23:14:33.805Z,10.83
2019-04-07T23:17:04.058Z,11.47
2019-04-07T23:19:34.427Z,11.10
2019-04-07T23:22:05.317Z,12.73
2019-04-07T23:24:35.311Z,11.57
2019-04-07T23:27:06.121Z,11.33
2019-04-07T23:29:36.645Z,10.37
2019-04-07T23:32:07.410Z,11.03
2019-04-07T23:34:37.498Z,14.10
2019-04-07T23:37:08.164Z,11.60
2019-04-07T23:39:38.149Z,11.60
2019-04-07T23:42:09.060Z,10.43
2019-04-07T23:44:39.422Z,10.90
2019-04-07T23:47:09.598Z,10.60
2019-04-07T23:49:40.493Z,11.03
2019-04-07T23:52:11.064Z,10.17
2019-04-07T23:54:41.868Z,10.43
2019-04-07T23:57:11.738Z,10.20
2019-04-07T23:59:42.172Z,11.67
